createdAt,value
2023-01-20T00:01:41.084Z,28.23
2023-01-20T00:04:09.433Z,28.02
2023-01-20T00:06:38.201Z,28.98
2023-01-20T00:09:23.061Z,29.20
2023-01-20T00:11:51.445Z,27.80
2023-01-20T00:14:21.106Z,26.85
2023-01-20T00:16:49.663Z,27.00
2023-01-20T00:19:18.187Z,25.25
2023-01-20T00:21:46.867Z,27.83
2023-01-20T00:24:15.533Z,29.50
2023-01-20T00:26:45.477Z,25.25
2023-01-20T00:29:14.157Z,27.23
2023-01-20T00:31:42.907Z,29.80
2023-01-20T00:34:11.912Z,27.48
2023-01-20T00:36:40.232Z,26.65
2023-01-20T00:39:09.110Z,28.98
2023-01-20T00:41:37.720Z,28.70
2023-01-20T00:44:07.802Z,29.05
2023-01-20T00:46:36.264Z,27.60
2023-01-20T00:49:04.667Z,27.83
2023-01-20T00:51:33.279Z,29.90
2023-01-20T00:54:01.698Z,27.13
2023-01-20T00:56:30.048Z,27.38
2023-01-20T00:58:58.411Z,27.42
2023-01-20T01:01:43.069Z,28.52
2023-01-20T01:04:11.728Z,27.15
2023-01-20T01:06:40.635Z,28.75
2023-01-20T01:09:09.228Z,25.42
2023-01-20T01:11:37.690Z,25.90
2023-01-20T01:14:06.087Z,27.13
2023-01-20T01:16:34.474Z,27.40
2023-01-20T01:19:04.250Z,25.88
2023-01-20T01:21:32.745Z,26.35
2023-01-20T01:24:01.295Z,26.95
2023-01-20T01:26:29.613Z,26.92
2023-01-20T01:28:59.270Z,27.30
2023-01-20T01:31:27.789Z,27.15
2023-01-20T01:33:56.175Z,24.33
2023-01-20T01:36:25.904Z,28.73
2023-01-20T01:38:57.234Z,28.30
2023-01-20T01:41:27.419Z,24.80
2023-01-20T01:44:03.885Z,25.90
2023-01-20T01:46:32.283Z,26.58
2023-01-20T01:49:05.125Z,27.17
2023-01-20T01:51:37.409Z,27.48
2023-01-20T01:54:19.846Z,26.08
2023-01-20T01:56:51.214Z,28.13
2023-01-20T01:59:20.931Z,26.65
2023-01-20T02:01:52.806Z,25.02
2023-01-20T02:04:23.411Z,26.80
2023-01-20T02:06:55.745Z,25.48
2023-01-20T02:09:25.119Z,25.33
2023-01-20T02:11:56.374Z,27.70
2023-01-20T02:14:29.601Z,24.90
2023-01-20T02:17:04.320Z,26.45
2023-01-20T02:20:05.514Z,25.83
2023-01-20T02:22:44.421Z,27.20
2023-01-20T02:25:44.055Z,26.42
2023-01-20T02:28:54.542Z,25.45
2023-01-20T02:31:45.726Z,25.10
2023-01-20T02:34:22.257Z,25.30
2023-01-20T02:36:56.481Z,30.95
2023-01-20T02:39:29.071Z,26.75
2023-01-20T02:42:02.400Z,29.83
2023-01-20T02:44:37.061Z,28.85
2023-01-20T02:47:11.121Z,27.35
2023-01-20T02:49:46.067Z,29.10
2023-01-20T02:52:17.478Z,29.17
2023-01-20T02:54:50.110Z,27.90
2023-01-20T02:57:24.014Z,31.42
2023-01-20T02:59:56.058Z,29.00
2023-01-20T03:02:27.768Z,27.05
2023-01-20T03:05:02.388Z,27.38
2023-01-20T03:07:33.837Z,28.35
2023-01-20T03:10:07.423Z,26.10
2023-01-20T03:12:41.678Z,28.17
2023-01-20T03:15:11.725Z,28.58
2023-01-20T03:17:40.208Z,26.90
2023-01-20T03:20:11.519Z,27.13
2023-01-20T03:22:39.934Z,28.33
2023-01-20T03:25:09.884Z,26.23
2023-01-20T03:27:38.584Z,27.13
2023-01-20T03:30:13.167Z,29.13
2023-01-20T03:32:43.611Z,28.10
2023-01-20T03:35:16.300Z,29.83
2023-01-20T03:37:45.187Z,29.70
2023-01-20T03:40:15.974Z,31.63
2023-01-20T03:42:54.315Z,30.77
2023-01-20T03:45:30.261Z,27.23
2023-01-20T03:48:05.496Z,28.75
2023-01-20T03:50:40.443Z,29.20
2023-01-20T03:53:19.904Z,28.27
2023-01-20T03:55:52.829Z,28.42
2023-01-20T03:58:24.925Z,28.45
2023-01-20T04:00:55.077Z,27.88
2023-01-20T04:03:28.042Z,29.88
2023-01-20T04:06:01.063Z,29.80
2023-01-20T04:08:34.859Z,27.33
2023-01-20T04:11:06.464Z,27.25
2023-01-20T04:13:35.177Z,27.55
2023-01-20T04:16:04.925Z,27.05
2023-01-20T04:18:33.364Z,28.17
2023-01-20T04:21:04.663Z,28.73
2023-01-20T04:23:37.106Z,25.42
2023-01-20T04:26:05.703Z,26.98
2023-01-20T04:28:34.077Z,25.00
2023-01-20T04:31:02.569Z,25.98
2023-01-20T04:33:30.952Z,25.77
2023-01-20T04:35:59.238Z,23.88
2023-01-20T04:38:28.969Z,24.88
2023-01-20T04:40:57.290Z,24.65
2023-01-20T04:43:25.556Z,26.15
2023-01-20T04:45:53.930Z,27.25
2023-01-20T04:48:22.252Z,26.65
2023-01-20T04:50:50.603Z,25.83
2023-01-20T04:53:19.449Z,28.75
2023-01-20T04:55:49.074Z,28.60
2023-01-20T04:58:17.431Z,26.13
2023-01-20T05:00:45.814Z,26.40
2023-01-20T05:03:14.134Z,25.90
2023-01-20T05:05:42.580Z,23.45
2023-01-20T05:08:10.896Z,24.88
2023-01-20T05:10:39.182Z,27.92
2023-01-20T05:13:09.028Z,26.83
2023-01-20T05:15:37.342Z,24.50
2023-01-20T05:18:05.737Z,26.83
2023-01-20T05:20:34.055Z,27.17
2023-01-20T05:23:02.378Z,27.95
2023-01-20T05:25:30.653Z,27.15
2023-01-20T05:28:00.210Z,29.73
2023-01-20T05:30:30.059Z,29.73
2023-01-20T05:32:58.400Z,28.10
2023-01-20T05:35:26.725Z,28.25
2023-01-20T05:37:55.629Z,27.90
2023-01-20T05:40:24.381Z,27.25
2023-01-20T05:42:52.704Z,27.75
2023-01-20T05:45:20.987Z,26.65
2023-01-20T05:47:56.178Z,28.10
2023-01-20T05:50:24.936Z,28.88
2023-01-20T05:52:53.515Z,27.08
2023-01-20T05:55:22.282Z,27.67
2023-01-20T05:57:50.683Z,24.40
2023-01-20T06:00:20.186Z,26.88
2023-01-20T06:02:48.542Z,28.73
2023-01-20T06:05:18.567Z,29.15
2023-01-20T06:07:47.032Z,28.38
2023-01-20T06:10:15.439Z,27.58
2023-01-20T06:12:44.017Z,27.25
2023-01-20T06:15:13.325Z,25.33
2023-01-20T06:17:41.868Z,26.50
2023-01-20T06:20:11.681Z,29.48
2023-01-20T06:22:41.474Z,29.58
2023-01-20T06:25:10.351Z,28.27
2023-01-20T06:27:38.668Z,28.27
2023-01-20T06:30:08.196Z,23.30
2023-01-20T06:32:36.635Z,26.58
2023-01-20T06:35:05.117Z,29.77
2023-01-20T06:37:33.412Z,26.45
2023-01-20T06:40:03.292Z,29.15
2023-01-20T06:42:32.752Z,27.67
2023-01-20T06:45:00.982Z,27.20
2023-01-20T06:47:29.430Z,27.17
2023-01-20T06:49:57.609Z,29.98
2023-01-20T06:52:25.830Z,29.77
2023-01-20T06:54:54.066Z,26.80
2023-01-20T06:57:23.796Z,26.52
2023-01-20T06:59:52.044Z,27.58
2023-01-20T07:02:20.340Z,30.27
2023-01-20T07:04:48.572Z,29.10
2023-01-20T07:07:16.784Z,28.20
2023-01-20T07:09:45.011Z,30.60
2023-01-20T07:12:13.236Z,28.23
2023-01-20T07:14:42.833Z,31.73
2023-01-20T07:17:13.055Z,31.13
2023-01-20T07:19:41.288Z,31.58
2023-01-20T07:22:09.792Z,28.83
2023-01-20T07:24:38.281Z,32.38
2023-01-20T07:27:06.640Z,33.47
2023-01-20T07:29:34.895Z,31.35
2023-01-20T07:32:04.864Z,32.20
2023-01-20T07:34:33.255Z,29.55
2023-01-20T07:37:02.495Z,29.80
2023-01-20T07:39:30.804Z,31.00
2023-01-20T07:41:59.144Z,27.67
2023-01-20T07:44:27.438Z,29.70
2023-01-20T07:46:55.654Z,29.20
2023-01-20T07:49:25.287Z,28.13
2023-01-20T07:51:53.544Z,28.95
2023-01-20T07:54:22.052Z,27.05
2023-01-20T07:56:50.340Z,29.38
2023-01-20T07:59:18.874Z,27.38
2023-01-20T08:01:47.326Z,27.70
2023-01-20T08:04:15.805Z,30.73
2023-01-20T08:06:45.567Z,30.55
2023-01-20T08:09:14.821Z,29.65
2023-01-20T08:11:43.112Z,30.20
2023-01-20T08:14:11.420Z,32.53
2023-01-20T08:16:39.879Z,31.90
2023-01-20T08:19:08.386Z,32.25
2023-01-20T08:21:36.792Z,30.98
2023-01-20T08:24:07.000Z,31.55
2023-01-20T08:26:35.990Z,31.90
2023-01-20T08:29:05.649Z,33.00
2023-01-20T08:31:34.148Z,30.55
2023-01-20T08:34:02.620Z,32.70
2023-01-20T08:36:32.842Z,31.05
2023-01-20T08:39:03.293Z,33.58
2023-01-20T08:41:35.411Z,31.05
2023-01-20T08:44:06.105Z,28.83
2023-01-20T08:46:34.724Z,27.70
2023-01-20T08:49:03.459Z,28.60
2023-01-20T08:51:33.664Z,28.55
2023-01-20T08:54:02.374Z,26.58
2023-01-20T08:56:34.088Z,28.27
2023-01-20T08:59:02.474Z,24.40
2023-01-20T09:01:33.716Z,25.75
2023-01-20T09:04:06.826Z,24.77
2023-01-20T09:06:40.899Z,25.20
2023-01-20T09:09:09.347Z,25.33
2023-01-20T09:11:40.444Z,26.30
2023-01-20T09:14:08.776Z,26.65
2023-01-20T09:16:37.079Z,25.63
2023-01-20T09:19:05.421Z,22.35
2023-01-20T09:21:34.519Z,22.30
2023-01-20T09:24:02.889Z,26.52
2023-01-20T09:26:38.867Z,24.30
2023-01-20T09:29:11.311Z,25.27
2023-01-20T09:31:44.318Z,24.20
2023-01-20T09:34:15.419Z,22.33
2023-01-20T09:36:43.906Z,23.40
2023-01-20T09:39:32.414Z,24.80
2023-01-20T09:42:23.829Z,23.65
2023-01-20T09:44:58.913Z,23.50
2023-01-20T09:47:31.348Z,22.80
2023-01-20T09:50:50.626Z,23.00
2023-01-20T09:53:39.542Z,22.52
2023-01-20T09:56:16.549Z,21.38
2023-01-20T09:58:49.878Z,23.92
2023-01-20T10:01:30.966Z,22.30
2023-01-20T10:04:07.807Z,23.63
2023-01-20T10:06:41.481Z,22.95
2023-01-20T10:09:21.361Z,23.50
2023-01-20T10:11:52.211Z,22.50
2023-01-20T10:14:24.637Z,22.73
2023-01-20T10:17:03.582Z,22.02
2023-01-20T10:19:39.755Z,22.60
2023-01-20T10:22:13.356Z,22.90
2023-01-20T10:24:49.177Z,22.15
2023-01-20T10:27:17.688Z,22.90
2023-01-20T10:29:50.645Z,21.88
2023-01-20T10:32:27.670Z,21.83
2023-01-20T10:34:58.426Z,20.08
2023-01-20T10:37:27.718Z,21.23
2023-01-20T10:39:59.769Z,21.38
2023-01-20T10:42:29.403Z,22.48
2023-01-20T10:44:59.775Z,21.77
2023-01-20T10:47:42.965Z,22.58
2023-01-20T10:50:38.626Z,22.02
2023-01-20T10:53:22.580Z,21.13
2023-01-20T10:56:03.517Z,18.70
2023-01-20T10:58:34.352Z,21.85
2023-01-20T11:01:08.950Z,24.08
2023-01-20T11:03:46.191Z,19.77
2023-01-20T11:06:20.597Z,21.27
2023-01-20T11:08:49.379Z,22.80
2023-01-20T11:11:21.674Z,22.65
2023-01-20T11:13:51.681Z,19.92
2023-01-20T11:16:24.764Z,19.52
2023-01-20T11:19:00.569Z,18.92
2023-01-20T11:21:31.248Z,20.65
2023-01-20T11:24:00.756Z,21.35
2023-01-20T11:26:31.653Z,20.58
2023-01-20T11:29:01.645Z,20.75
2023-01-20T11:31:43.055Z,21.25
2023-01-20T11:34:24.110Z,23.40
2023-01-20T11:37:30.094Z,22.35
2023-01-20T11:40:02.409Z,20.85
2023-01-20T11:42:42.170Z,19.95
2023-01-20T11:45:26.098Z,19.52
2023-01-20T11:48:04.375Z,19.70
2023-01-20T11:50:41.760Z,22.02
2023-01-20T11:53:19.418Z,19.85
2023-01-20T11:55:51.598Z,20.70
2023-01-20T11:58:22.249Z,20.15
2023-01-20T12:00:53.410Z,21.30
2023-01-20T12:03:47.936Z,21.42
2023-01-20T12:06:24.320Z,22.23
2023-01-20T12:08:56.620Z,20.13
2023-01-20T12:11:29.614Z,21.67
2023-01-20T12:14:28.818Z,22.80
2023-01-20T12:17:07.631Z,20.17
2023-01-20T12:19:49.978Z,20.65
2023-01-20T12:22:34.019Z,20.15
2023-01-20T12:25:14.827Z,19.92
2023-01-20T12:27:49.777Z,17.33
2023-01-20T12:30:40.586Z,19.70
2023-01-20T12:33:22.397Z,20.30
2023-01-20T12:36:18.611Z,21.23
2023-01-20T12:39:19.859Z,19.13
2023-01-20T12:42:40.867Z,20.58
2023-01-20T12:45:22.696Z,18.13
2023-01-20T12:48:05.864Z,17.67
2023-01-20T12:51:10.710Z,21.15
2023-01-20T12:53:54.332Z,21.23
2023-01-20T12:56:48.731Z,20.60
2023-01-20T12:59:47.003Z,22.25
2023-01-20T13:02:48.264Z,21.83
2023-01-20T13:05:57.378Z,23.65
2023-01-20T13:08:36.714Z,23.05
2023-01-20T13:11:21.052Z,21.50
2023-01-20T13:14:06.792Z,21.55
2023-01-20T13:16:43.271Z,22.52
2023-01-20T13:19:16.711Z,24.17
2023-01-20T13:21:46.078Z,22.85
2023-01-20T13:24:29.352Z,23.58
2023-01-20T13:27:00.204Z,24.23
2023-01-20T13:29:44.504Z,24.58
2023-01-20T13:32:45.112Z,24.27
2023-01-20T13:35:42.838Z,23.25
2023-01-20T13:38:20.947Z,26.17
2023-01-20T13:40:52.732Z,26.38
2023-01-20T13:43:54.687Z,25.75
2023-01-20T13:46:46.537Z,25.98
2023-01-20T13:49:45.935Z,26.50
2023-01-20T13:52:14.770Z,24.80
2023-01-20T13:54:46.276Z,25.77
2023-01-20T13:57:45.779Z,29.05
2023-01-20T14:00:19.484Z,29.48
2023-01-20T14:02:50.077Z,28.42
2023-01-20T14:05:51.423Z,28.48
2023-01-20T14:08:22.935Z,28.15
2023-01-20T14:10:51.765Z,27.38
2023-01-20T14:13:23.708Z,27.15
2023-01-20T14:15:54.537Z,25.25
2023-01-20T14:18:24.863Z,27.05
2023-01-20T14:21:10.655Z,26.67
2023-01-20T14:23:56.657Z,24.55
2023-01-20T14:26:27.082Z,26.92
2023-01-20T14:28:57.207Z,27.20
2023-01-20T14:31:35.313Z,26.60
2023-01-20T14:34:20.040Z,27.52
2023-01-20T14:36:49.182Z,25.40
2023-01-20T14:39:30.661Z,22.65
2023-01-20T14:42:00.592Z,25.85
2023-01-20T14:44:30.944Z,24.17
2023-01-20T14:47:01.776Z,21.65
2023-01-20T14:49:33.779Z,20.73
2023-01-20T14:52:03.499Z,20.45
2023-01-20T14:54:37.998Z,18.80
2023-01-20T14:57:26.244Z,15.27
2023-01-20T15:00:13.502Z,14.93
2023-01-20T15:03:01.015Z,15.32
2023-01-20T15:05:38.547Z,14.57
2023-01-20T15:08:26.309Z,16.27
2023-01-20T15:11:23.299Z,13.88
2023-01-20T15:14:10.272Z,15.15
2023-01-20T15:16:49.553Z,16.48
2023-01-20T15:19:36.180Z,15.60
2023-01-20T15:22:42.408Z,14.65
2023-01-20T15:25:14.751Z,16.98
2023-01-20T15:28:10.760Z,15.50
2023-01-20T15:30:46.849Z,16.05
2023-01-20T15:33:21.000Z,15.75
2023-01-20T15:35:54.664Z,17.25
2023-01-20T15:38:24.994Z,18.83
2023-01-20T15:41:08.351Z,18.27
2023-01-20T15:43:41.087Z,18.80
2023-01-20T15:46:14.318Z,19.73
2023-01-20T15:48:46.153Z,17.98
2023-01-20T15:51:17.272Z,18.98
2023-01-20T15:53:46.409Z,20.38
2023-01-20T15:56:20.452Z,19.15
2023-01-20T15:59:20.439Z,19.80
2023-01-20T16:01:59.513Z,19.80
2023-01-20T16:04:33.056Z,20.80
2023-01-20T16:07:05.691Z,21.88
2023-01-20T16:09:38.781Z,20.35
2023-01-20T16:12:20.744Z,22.40
2023-01-20T16:14:51.375Z,22.60
2023-01-20T16:17:32.825Z,22.70
2023-01-20T16:20:05.348Z,24.33
2023-01-20T16:22:39.106Z,21.65
2023-01-20T16:25:09.900Z,23.05
2023-01-20T16:27:38.887Z,22.15
2023-01-20T16:30:08.678Z,21.08
2023-01-20T16:32:40.293Z,22.63
2023-01-20T16:35:09.738Z,22.13
2023-01-20T16:37:40.450Z,20.88
2023-01-20T16:40:19.974Z,23.10
2023-01-20T16:42:52.219Z,23.23
2023-01-20T16:45:27.140Z,22.13
2023-01-20T16:47:57.349Z,23.42
2023-01-20T16:50:28.587Z,21.08
2023-01-20T16:52:57.289Z,20.83
2023-01-20T16:55:26.895Z,20.15
2023-01-20T16:57:55.544Z,19.20
2023-01-20T17:00:24.410Z,18.25
2023-01-20T17:02:53.615Z,17.73
2023-01-20T17:05:29.373Z,15.73
2023-01-20T17:07:59.969Z,16.17
2023-01-20T17:10:32.384Z,15.65
2023-01-20T17:13:00.923Z,15.52
2023-01-20T17:15:29.675Z,15.52
2023-01-20T17:18:00.526Z,15.48
2023-01-20T17:20:32.388Z,17.58
2023-01-20T17:23:00.849Z,16.02
2023-01-20T17:25:29.363Z,16.90
2023-01-20T17:27:57.868Z,16.35
2023-01-20T17:30:26.782Z,14.85
2023-01-20T17:32:55.332Z,17.02
2023-01-20T17:35:23.781Z,15.75
2023-01-20T17:37:54.345Z,16.13
2023-01-20T17:40:22.887Z,14.98
2023-01-20T17:42:54.153Z,15.90
2023-01-20T17:45:22.778Z,15.75
2023-01-20T17:47:52.248Z,15.23
2023-01-20T17:50:20.976Z,15.27
2023-01-20T17:52:49.759Z,14.23
2023-01-20T17:55:29.171Z,15.68
2023-01-20T17:57:57.644Z,15.68
2023-01-20T18:00:26.214Z,16.10
2023-01-20T18:02:57.531Z,15.80
2023-01-20T18:05:58.567Z,14.95
2023-01-20T18:08:36.024Z,15.88
2023-01-20T18:11:24.148Z,14.25
2023-01-20T18:13:55.173Z,13.45
2023-01-20T18:16:33.090Z,14.65
2023-01-20T18:19:02.730Z,15.50
2023-01-20T18:21:32.936Z,14.98
2023-01-20T18:24:02.958Z,16.25
2023-01-20T18:26:36.558Z,14.32
2023-01-20T18:29:07.948Z,16.08
2023-01-20T18:31:36.734Z,16.15
2023-01-20T18:34:06.963Z,16.20
2023-01-20T18:36:37.383Z,14.73
2023-01-20T18:39:07.343Z,15.68
2023-01-20T18:41:38.982Z,14.88
2023-01-20T18:44:08.101Z,14.65
2023-01-20T18:46:43.476Z,13.50
2023-01-20T18:49:14.586Z,14.30
2023-01-20T18:51:44.041Z,14.13
2023-01-20T18:54:14.928Z,14.25
2023-01-20T18:56:45.333Z,15.02
2023-01-20T18:59:34.118Z,14.10
2023-01-20T19:02:02.672Z,14.35
2023-01-20T19:04:38.685Z,12.90
2023-01-20T19:07:07.339Z,15.18
2023-01-20T19:09:35.848Z,14.30
2023-01-20T19:12:10.729Z,14.38
2023-01-20T19:14:39.192Z,14.88
2023-01-20T19:17:08.466Z,14.68
2023-01-20T19:19:36.850Z,14.07
2023-01-20T19:22:13.168Z,14.43
2023-01-20T19:24:47.392Z,14.63
2023-01-20T19:27:40.989Z,13.95
2023-01-20T19:30:11.554Z,13.95
2023-01-20T19:32:42.030Z,15.75
2023-01-20T19:35:50.702Z,16.60
2023-01-20T19:38:35.669Z,15.48
2023-01-20T19:41:08.430Z,15.45
2023-01-20T19:44:20.983Z,15.43
2023-01-20T19:47:06.482Z,16.40
2023-01-20T19:49:35.094Z,15.95
2023-01-20T19:52:20.675Z,14.07
2023-01-20T19:54:59.461Z,17.20
2023-01-20T19:57:28.324Z,14.32
2023-01-20T19:59:56.990Z,14.52
2023-01-20T20:02:45.031Z,17.10
2023-01-20T20:05:16.938Z,15.80
2023-01-20T20:07:47.709Z,16.92
2023-01-20T20:10:18.969Z,15.63
2023-01-20T20:12:59.136Z,15.77
2023-01-20T20:15:28.844Z,14.98
2023-01-20T20:18:07.341Z,15.20
2023-01-20T20:20:43.261Z,16.02
2023-01-20T20:23:12.019Z,16.83
2023-01-20T20:25:44.396Z,17.23
2023-01-20T20:28:13.909Z,16.15
2023-01-20T20:30:43.423Z,17.42
2023-01-20T20:33:13.595Z,17.10
2023-01-20T20:35:42.344Z,16.48
2023-01-20T20:38:10.853Z,15.35
2023-01-20T20:40:39.280Z,13.88
2023-01-20T20:43:16.477Z,16.48
2023-01-20T20:45:45.168Z,14.57
2023-01-20T20:48:15.169Z,15.30
2023-01-20T20:50:47.641Z,15.65
2023-01-20T20:53:17.611Z,14.93
2023-01-20T20:55:46.264Z,14.95
2023-01-20T20:58:22.391Z,14.57
2023-01-20T21:00:56.847Z,14.75
2023-01-20T21:03:47.945Z,15.80
2023-01-20T21:06:17.321Z,16.88
2023-01-20T21:08:50.072Z,15.85
2023-01-20T21:11:18.597Z,16.25
2023-01-20T21:13:49.157Z,14.98
2023-01-20T21:16:21.944Z,14.73
2023-01-20T21:18:53.081Z,14.10
2023-01-20T21:21:22.152Z,12.98
2023-01-20T21:23:57.164Z,14.85
2023-01-20T21:26:29.997Z,13.70
2023-01-20T21:29:04.031Z,12.23
2023-01-20T21:31:34.344Z,13.30
2023-01-20T21:34:09.996Z,13.45
2023-01-20T21:36:46.191Z,13.48
2023-01-20T21:39:15.702Z,9.73
2023-01-20T21:41:44.809Z,10.63
2023-01-20T21:44:33.083Z,9.98
2023-01-20T21:47:04.491Z,9.27
2023-01-20T21:50:07.636Z,11.18
2023-01-20T21:52:42.854Z,11.05
2023-01-20T21:55:13.021Z,10.43
2023-01-20T21:57:54.977Z,10.77
2023-01-20T22:00:23.784Z,10.98
2023-01-20T22:02:52.261Z,10.85
2023-01-20T22:05:30.420Z,12.05
2023-01-20T22:08:05.918Z,11.65
2023-01-20T22:10:40.302Z,10.73
2023-01-20T22:13:08.891Z,12.48
2023-01-20T22:15:40.508Z,11.48
2023-01-20T22:18:09.139Z,11.02
2023-01-20T22:20:43.925Z,11.00
2023-01-20T22:23:29.938Z,10.75
2023-01-20T22:25:58.511Z,9.07
2023-01-20T22:28:31.486Z,10.45
2023-01-20T22:31:06.431Z,10.65
2023-01-20T22:33:35.184Z,11.30
2023-01-20T22:36:08.681Z,10.50
2023-01-20T22:38:38.066Z,11.63
2023-01-20T22:41:08.177Z,11.88
2023-01-20T22:43:42.396Z,12.68
2023-01-20T22:46:13.826Z,12.18
2023-01-20T22:48:43.331Z,11.65
2023-01-20T22:51:37.796Z,11.43
2023-01-20T22:54:07.588Z,13.10
2023-01-20T22:56:39.060Z,12.63
2023-01-20T22:59:08.095Z,12.13
2023-01-20T23:01:37.508Z,11.63
2023-01-20T23:04:15.157Z,11.57
2023-01-20T23:06:50.650Z,10.98
2023-01-20T23:09:19.073Z,12.85
2023-01-20T23:11:49.045Z,12.90
2023-01-20T23:18:11.009Z,13.38
2023-01-20T23:20:39.857Z,16.45
2023-01-20T23:23:15.155Z,15.43
2023-01-20T23:25:43.938Z,15.23
2023-01-20T23:28:17.285Z,15.90
2023-01-20T23:30:48.158Z,16.52
2023-01-20T23:33:16.830Z,14.57
2023-01-20T23:35:45.641Z,16.77
2023-01-20T23:38:15.811Z,15.68
2023-01-20T23:40:44.320Z,14.85
2023-01-20T23:43:26.769Z,15.27
2023-01-20T23:46:01.390Z,15.32
2023-01-20T23:48:30.563Z,15.57
2023-01-20T23:51:00.128Z,15.18
2023-01-20T23:53:32.524Z,15.30
2023-01-20T23:56:02.295Z,14.88
2023-01-20T23:58:39.817Z,14.05
